Map

Track Data

SID SEASON NUMBER BASIN SUBBASIN NAME ISO_TIME NATURE LAT LON WMO_WIND WMO_PRES WMO_AGENCY TRACK_TYPE DIST2LAND LANDFALL IFLAG USA_AGENCY USA_ATCF_ID USA_LAT USA_LON USA_RECORD USA_STATUS USA_WIND USA_PRES USA_SSHS USA_R34_NE USA_R34_SE USA_R34_SW USA_R34_NW USA_R50_NE USA_R50_SE USA_R50_SW USA_R50_NW USA_R64_NE USA_R64_SE USA_R64_SW USA_R64_NW USA_POCI USA_ROCI USA_RMW USA_EYE TOKYO_LAT TOKYO_LON TOKYO_GRADE TOKYO_WIND TOKYO_PRES TOKYO_R50_DIR TOKYO_R50_LONG TOKYO_R50_SHORT TOKYO_R30_DIR TOKYO_R30_LONG TOKYO_R30_SHORT TOKYO_LAND CMA_LAT CMA_LON CMA_CAT CMA_WIND CMA_PRES HKO_LAT HKO_LON HKO_CAT HKO_WIND HKO_PRES NEWDELHI_LAT NEWDELHI_LON NEWDELHI_GRADE NEWDELHI_WIND NEWDELHI_PRES NEWDELHI_CI NEWDELHI_DP NEWDELHI_POCI REUNION_LAT REUNION_LON REUNION_TYPE REUNION_WIND REUNION_PRES REUNION_TNUM REUNION_CI REUNION_RMW REUNION_R34_NE REUNION_R34_SE REUNION_R34_SW REUNION_R34_NW REUNION_R50_NE REUNION_R50_SE REUNION_R50_SW REUNION_R50_NW REUNION_R64_NE REUNION_R64_SE REUNION_R64_SW REUNION_R64_NW BOM_LAT BOM_LON BOM_TYPE BOM_WIND BOM_PRES BOM_TNUM BOM_CI BOM_RMW BOM_R34_NE BOM_R34_SE BOM_R34_SW BOM_R34_NW BOM_R50_NE BOM_R50_SE BOM_R50_SW BOM_R50_NW BOM_R64_NE BOM_R64_SE BOM_R64_SW BOM_R64_NW BOM_ROCI BOM_POCI BOM_EYE BOM_POS_METHOD BOM_PRES_METHOD NADI_LAT NADI_LON NADI_CAT NADI_WIND NADI_PRES WELLINGTON_LAT WELLINGTON_LON WELLINGTON_WIND WELLINGTON_PRES DS824_LAT DS824_LON DS824_STAGE DS824_WIND DS824_PRES TD9636_LAT TD9636_LON TD9636_STAGE TD9636_WIND TD9636_PRES TD9635_LAT TD9635_LON TD9635_WIND TD9635_PRES TD9635_ROCI NEUMANN_LAT NEUMANN_LON NEUMANN_CLASS NEUMANN_WIND NEUMANN_PRES MLC_LAT MLC_LON MLC_CLASS MLC_WIND MLC_PRES USA_GUST BOM_GUST BOM_GUST_PER REUNION_GUST REUNION_GUST_PER USA_SEAHGT USA_SEARAD_NE USA_SEARAD_SE USA_SEARAD_SW USA_SEARAD_NW STORM_SPEED STORM_DIR
1966088S13121 1966 23 SI WA SHIRLEY 1966-03-28 23:00:00 NR -12.7000 121.000 main 274 270 __________O___ -1 -12.7000 121.000 1 12 270
1966088S13121 1966 23 SI WA SHIRLEY 1966-03-29 00:00:00 TS -12.7013 120.798 main 270 268 O________OP___ jtwc_sh SH351966 -12.7000 120.800 -1 -12.7000 120.800 TC -12.7027 120.796 1 18 266
1966088S13121 1966 23 SI WA SHIRLEY 1966-03-29 01:00:00 TS -12.7378 120.386 1005 bom main 269 269 P_____O__PP___ SH351966 -12.7213 120.578 -1 -12.9000 119.000 1005 -12.7213 120.578 TC -12.7058 120.592 1 17 265
1966088S13121 1966 23 SI WA SHIRLEY 1966-03-29 03:00:00 TS -12.7819 119.930 main 287 287 P_____P__PP___ SH351966 -12.7604 120.138 -1 -12.9780 118.801 -12.7604 120.138 TC -12.7160 120.182 1 13 263
1966088S13121 1966 23 SI WA SHIRLEY 1966-03-29 06:00:00 TS -12.8619 119.285 main 317 317 O_____P__OP_O_ jtwc_sh SH351966 -12.8000 119.500 -1 -13.0961 118.505 -12.8000 119.500 TC -12.7504 119.561 1 -13.1000 118.800 TC 25 1003 12 262
1966088S13121 1966 23 SI WA SHIRLEY 1966-03-29 09:00:00 TS -12.9579 118.716 main 353 353 P_____P__PP_P_ SH351966 -12.8198 118.900 -1 -13.2172 118.216 -12.8198 118.900 TC -12.8226 118.930 1 -13.2625 118.550 TC 27 1001 11 259
1966088S13121 1966 23 SI WA SHIRLEY 1966-03-29 11:00:00 TS -13.0400 118.384 main 369 369 P_____P__PO_P_ SH351966 -12.8604 118.503 -1 -13.3006 118.030 -12.8604 118.503 TC -12.9000 118.500 1 -13.3585 118.383 TC 29 1000 10 254
1966088S13121 1966 23 SI WA SHIRLEY 1966-03-29 12:00:00 TS -13.0985 118.224 main 391 391 O_____P__OP_O_ jtwc_sh SH351966 -12.9000 118.300 -1 -13.3434 117.940 -12.9000 118.300 TC -12.9490 118.282 1 -13.4000 118.300 TC 30 1000 10 250
1966088S13121 1966 23 SI WA SHIRLEY 1966-03-29 15:00:00 TS -13.2778 117.721 main 431 431 P_____P__PP_P_ SH351966 -13.1426 117.620 -1 -13.4767 117.680 -13.1426 117.620 TC -13.1268 117.635 1 -13.5000 118.050 TC 32 999 10 249
1966088S13121 1966 23 SI WA SHIRLEY 1966-03-29 18:00:00 TS -13.4686 117.256 main 468 468 O_____P__OP_O_ jtwc_sh SH351966 -13.4000 117.000 -1 -13.6193 117.443 -13.4000 117.000 TC -13.3236 117.039 1 -13.6000 117.800 TC 35 998 9 248
1966088S13121 1966 23 SI WA SHIRLEY 1966-03-29 21:00:00 TS -13.6146 116.866 main 498 498 P_____P__PP_P_ SH351966 -13.5299 116.510 -1 -13.7733 117.232 -13.5299 116.510 TC -13.5048 116.545 1 -13.7350 117.535 TC 37 996 7 248
1966088S13121 1966 23 SI WA SHIRLEY 1966-03-29 23:00:00 TS -13.6971 116.668 main 516 516 P_____P__PO_P_ SH351966 -13.5802 116.280 -1 -13.8834 117.108 -13.5802 116.280 TC -13.6000 116.300 1 -13.8417 117.372 TC 39 995 6 241
1966088S13121 1966 23 SI WA SHIRLEY 1966-03-30 00:00:00 TS -13.7465 116.618 main 517 517 O_____P__OP_O_ jtwc_sh SH351966 -13.6000 116.200 -1 -13.9408 117.052 -13.6000 116.200 TC -13.6281 116.215 1 -13.9000 117.300 TC 40 995 4 219
1966088S13121 1966 23 SI WA SHIRLEY 1966-03-30 01:00:00 TS -13.7991 116.582 995 bom main 528 528 P_____O__PP_P_ SH351966 -13.6249 116.141 -1 -14.0000 117.000 995 -13.6249 116.141 TC -13.6503 116.150 1 -13.9609 117.233 TC 40 994 3 210
1966088S13121 1966 23 SI WA SHIRLEY 1966-03-30 03:00:00 TS -13.8918 116.529 main 540 540 P_____P__PP_P_ SH351966 -13.6649 116.090 -1 -14.1236 116.908 -13.6649 116.090 TC -13.6799 116.069 1 -14.0925 117.120 TC 42 992 3 199
1966088S13121 1966 23 SI WA SHIRLEY 1966-03-30 06:00:00 TS -14.0206 116.496 main 551 551 O_____P__OP_O_ jtwc_sh SH351966 -13.7000 116.100 -1 -14.3207 116.798 -13.7000 116.100 TC -13.6973 116.043 1 -14.3000 117.000 TC 45 990 2 197
1966088S13121 1966 23 SI WA SHIRLEY 1966-03-30 09:00:00 TS -14.1225 116.462 main 562 562 P_____P__PP_P_ SH351966 -13.7000 116.092 -1 -14.5290 116.718 -13.7000 116.092 TC -13.6988 116.075 1 -14.5000 116.935 TC 50 987 2 190
1966088S13121 1966 23 SI WA SHIRLEY 1966-03-30 11:00:00 TS -14.1902 116.449 main 574 574 P_____P__PO_P_ SH351966 -13.6969 116.097 -1 -14.6725 116.679 -13.6969 116.097 TC -13.7000 116.100 1 -14.6333 116.911 TC 53 984 2 192
1966088S13121 1966 23 SI WA SHIRLEY 1966-03-30 12:00:00 TS -14.2248 116.441 main 574 574 O_____P__OP_O_ jtwc_sh SH351966 -13.7000 116.100 -1 -14.7453 116.663 -13.7000 116.100 TC -13.6948 116.096 1 -14.7000 116.900 TC 55 984 2 192
1966088S13121 1966 23 SI WA SHIRLEY 1966-03-30 15:00:00 TS -14.3402 116.418 main 586 586 P_____P__PP_P_ SH351966 -13.7500 116.108 -1 -14.9666 116.628 -13.7500 116.108 TC -13.6735 116.091 1 -14.8925 116.850 TC 60 981 2 191
1966088S13121 1966 23 SI WA SHIRLEY 1966-03-30 18:00:00 TS -14.4613 116.394 main 608 608 O_____P__OP_O_ jtwc_sh SH351966 -13.8000 116.100 -1 -15.1897 116.610 -13.8000 116.100 TC -13.6706 116.083 1 -15.1000 116.800 TC 65 978 2 193
1966088S13121 1966 23 SI WA SHIRLEY 1966-03-30 21:00:00 TS -14.5711 116.364 main 619 619 P_____P__PP_P_ SH351966 -13.7700 116.080 -1 -15.4116 116.602 -13.7700 116.080 TC -13.7205 116.048 1 -15.3500 116.743 TC 67 975 3 195
1966088S13121 1966 23 SI WA SHIRLEY 1966-03-30 23:00:00 TS -14.6600 116.332 main 631 631 P_____P__PO_P_ SH351966 -13.7741 116.036 -1 -15.5573 116.600 -13.7741 116.036 TC -13.8000 116.000 2 -15.5198 116.711 TC 69 972 3 201
1966088S13121 1966 23 SI WA SHIRLEY 1966-03-31 00:00:00 TS -14.7145 116.310 main 631 631 O_____P__OP_O_ jtwc_sh SH351966 -13.8000 116.000 -1 -15.6290 116.600 -13.8000 116.000 TC -13.8582 115.958 2 -15.6000 116.700 TC 70 972 4 202
1966088S13121 1966 23 SI WA SHIRLEY 1966-03-31 01:00:00 TS -14.7763 116.282 970 bom main 642 639 P_____O__PP_P_ SH351966 -13.8469 115.948 -1 -15.7000 116.600 970 -13.8469 115.948 TC -13.9268 115.910 2 -15.6724 116.694 TC 70 971 5 203
1966088S13121 1966 23 SI WA SHIRLEY 1966-03-31 03:00:00 TS -14.9201 116.216 main 639 607 P_____P__PP_P_ SH351966 -13.9900 115.815 -1 -15.8477 116.592 969 -13.9900 115.815 TC -14.0915 115.798 2 -15.8075 116.692 TC 72 970 5 203
1966088S13121 1966 23 SI WA SHIRLEY 1966-03-31 06:00:00 TS -15.1750 116.113 main 607 585 O_____P__OP_O_ jtwc_sh SH351966 -14.3000 115.600 -1 -16.0651 116.590 967 -14.3000 115.600 TC -14.3956 115.608 2 -16.0000 116.700 TC 75 968 6 198
1966088S13121 1966 23 SI WA SHIRLEY 1966-03-31 09:00:00 TS -15.4629 116.030 main 575 564 P_____P__PP_P_ SH351966 -14.6775 115.442 -1 -16.2686 116.593 966 -14.6775 115.442 TC -14.7484 115.415 2 -16.2150 116.700 TC 77 966 6 195
1966088S13121 1966 23 SI WA SHIRLEY 1966-03-31 11:00:00 TS -15.6637 115.981 main 553 553 P_____P__PO_P_ SH351966 -14.9588 115.347 -1 -16.3913 116.597 965 -14.9588 115.347 TC -15.0000 115.300 1 -16.3448 116.700 TC 79 965 6 193
1966088S13121 1966 23 SI WA SHIRLEY 1966-03-31 12:00:00 TS -15.7615 115.957 main 542 542 O_____P__OP_O_ jtwc_sh SH351966 -15.1000 115.300 -1 -16.4476 116.598 965 -15.1000 115.300 TC -15.1211 115.246 1 -16.4000 116.700 TC 80 965 6 191
1966088S13121 1966 23 SI WA SHIRLEY 1966-03-31 13:00:00 TS -15.8543 115.932 965 bom main 532 521 P_____O__PP_P_ SH351966 -15.2333 115.245 -1 -16.5000 116.600 965 -15.2333 115.245 TC -15.2464 115.193 1 -16.4448 116.700 TC 80 965 6 194
1966088S13121 1966 23 SI WA SHIRLEY 1966-03-31 15:00:00 TS -16.0331 115.882 main 521 490 P_____P__PP_P_ SH351966 -15.5000 115.135 -1 -16.5721 116.599 965 -15.5000 115.135 TC -15.5071 115.095 1 -16.5150 116.700 TC 80 965 5 193
1966088S13121 1966 23 SI WA SHIRLEY 1966-03-31 18:00:00 TS -16.2970 115.823 main 490 468 O_____P__OP_O_ jtwc_sh SH351966 -15.9000 115.000 -1 -16.6545 116.597 965 -15.9000 115.000 TC -15.9148 114.976 1 -16.6000 116.700 TC 80 965 5 190
1966088S13121 1966 23 SI WA SHIRLEY 1966-03-31 21:00:00 TS -16.5604 115.790 main 457 446 P_____P__PP_P_ SH351966 -16.3000 114.913 -1 -16.7358 116.597 965 -16.3000 114.913 TC -16.3285 114.908 1 -16.6700 116.700 TC 80 965 5 185
1966088S13121 1966 23 SI WA SHIRLEY 1966-03-31 23:00:00 TS -16.7431 115.788 main 446 435 P_____P__PO_P_ SH351966 -16.5667 114.894 -1 -16.8058 116.598 965 -16.5667 114.894 TC -16.6000 114.900 1 -16.7438 116.700 TC 80 965 6 175
1966088S13121 1966 23 SI WA SHIRLEY 1966-04-01 00:00:00 TS -16.8390 115.793 main 435 424 O_____P__OP_O_ jtwc_sh SH351966 -16.7000 114.900 -1 -16.8493 116.599 965 -16.7000 114.900 TC -16.7332 114.906 1 -16.8000 116.700 TC 80 965 6 176
1966088S13121 1966 23 SI WA SHIRLEY 1966-04-01 01:00:00 TS -16.9405 115.802 965 bom main 424 402 P_____O__PP_P_ SH351966 -16.8359 114.911 -1 -16.9000 116.600 965 -16.8359 114.911 TC -16.8661 114.921 1 -16.8772 116.700 TC 80 965 6 172
1966088S13121 1966 23 SI WA SHIRLEY 1966-04-01 03:00:00 TS -17.1571 115.832 main 391 356 P_____P__PP_P_ SH351966 -17.1075 114.962 -1 -17.0428 116.592 -17.1075 114.962 TC -17.1295 114.973 1 -17.0700 116.700 TC 80 965 7 170
1966088S13121 1966 23 SI WA SHIRLEY 1966-04-01 06:00:00 TS -17.4921 115.904 main 356 321 O_____P__OP_O_ jtwc_sh SH351966 -17.5000 115.100 -1 -17.3074 116.579 -17.5000 115.100 TC -17.5134 115.100 1 -17.4000 116.700 TC 80 965 7 167
1966088S13121 1966 23 SI WA SHIRLEY 1966-04-01 09:00:00 TS -17.8215 115.997 main 321 297 P_____P__PP_P_ SH351966 -17.8725 115.285 -1 -17.6224 116.568 -17.8725 115.285 TC -17.8754 115.270 1 -17.6925 116.693 TC 80 965 7 164
1966088S13121 1966 23 SI WA SHIRLEY 1966-04-01 11:00:00 TS -18.0369 116.069 main 297 286 P_____P__PO_P_ SH351966 -18.0974 115.428 -1 -17.8550 116.565 -18.0974 115.428 TC -18.1000 115.400 2 -17.8943 116.694 TC 80 965 7 162
1966088S13121 1966 23 SI WA SHIRLEY 1966-04-01 12:00:00 TS -18.1412 116.106 main 286 251 O_____P__OP_O_ jtwc_sh SH351966 -18.2000 115.500 -1 -17.9768 116.565 -18.2000 115.500 TC -18.1977 115.465 2 -18.0000 116.700 TC 80 965 6 161
1966088S13121 1966 23 SI WA SHIRLEY 1966-04-01 15:00:00 TS -18.4422 116.218 main 251 216 P_____P__PP_P_ SH351966 -18.4575 115.693 -1 -18.3595 116.578 -18.4575 115.693 TC -18.4659 115.685 2 -18.3425 116.750 TC 80 965 6 160
1966088S13121 1966 23 SI WA SHIRLEY 1966-04-01 18:00:00 TS -18.7449 116.339 main 216 180 O_____P__OP_O_ jtwc_sh SH351966 -18.7000 115.900 -1 -18.7594 116.612 -18.7000 115.900 TC -18.7205 115.923 2 -18.7000 116.800 TC 80 965 7 159
1966088S13121 1966 23 SI WA SHIRLEY 1966-04-01 21:00:00 TS -19.0634 116.467 main 169 157 P_____P__PP_P_ SH351966 -18.9775 116.150 -1 -19.1653 116.673 -18.9775 116.150 TC -18.9930 116.157 2 -19.0350 116.808 TC 80 965 7 160
1966088S13121 1966 23 SI WA SHIRLEY 1966-04-01 22:00:00 TS -19.1755 116.509 965 bom main 157 146 P_____O__PP_P_ SH351966 -19.0788 116.236 -1 -19.3000 116.700 965 -19.0788 116.236 TC -19.0932 116.230 2 -19.1509 116.805 TC 80 965 7 161
1966088S13121 1966 23 SI WA SHIRLEY 1966-04-01 23:00:00 TS -19.2913 116.551 main 145 134 P_____P__PO_P_ SH351966 -19.1860 116.320 -1 -19.4299 116.741 965 -19.1860 116.320 TC -19.2000 116.300 2 -19.2719 116.803 TC 80 965 8 162
1966088S13121 1966 23 SI WA SHIRLEY 1966-04-02 00:00:00 TS -19.4135 116.593 main 134 123 O_____P__OP_O_ jtwc_sh SH351966 -19.3000 116.400 -1 -19.5629 116.777 965 -19.3000 116.400 TC -19.3178 116.378 2 -19.4000 116.800 TC 80 965 8 162
1966088S13121 1966 23 SI WA SHIRLEY 1966-04-02 01:00:00 TS -19.5412 116.634 965 bom main 123 89 P_____O__PP_P_ SH351966 -19.4167 116.480 -1 -19.7000 116.800 965 -19.4167 116.480 TC -19.4412 116.456 2 -19.5438 116.813 TC 80 965 8 163
1966088S13121 1966 23 SI WA SHIRLEY 1966-04-02 03:00:00 TS -19.8085 116.721 main 89 44 P_____P__PP_P_ SH351966 -19.6700 116.630 -1 -19.9643 116.909 965 -19.6700 116.630 TC -19.7029 116.604 2 -19.8499 116.837 TC 80 965 9 170
1966088S13121 1966 23 SI WA SHIRLEY 1966-04-02 06:00:00 TS -20.2409 116.765 main 44 22 O_____P__OP_O_ jtwc_sh SH351966 -20.1000 116.800 -1 -20.4176 116.802 965 -20.1000 116.800 TC -20.1280 116.788 2 -20.3000 116.800 TC 80 965 9 0
1966088S13121 1966 23 SI WA SHIRLEY 1966-04-02 07:00:00 TS -20.3913 116.737 965 bom main 22 11 P_____O__PP_P_ SH351966 -20.2552 116.849 -1 -20.6000 116.600 965 4 -20.2552 116.849 TC -20.2769 116.833 2 -20.4334 116.740 TC 76 965 9 195
1966088S13121 1966 23 SI WA SHIRLEY 1966-04-02 08:00:00 TS -20.5461 116.685 965 bom main 11 0 P_____O__PP_P_ SH351966 -20.4175 116.889 -1 -20.8000 116.300 965 -20.4175 116.889 TC -20.4289 116.869 2 -20.5601 116.662 TC 73 966 10 197
1966088S13121 1966 23 SI WA SHIRLEY 1966-04-02 09:00:00 TS -20.6934 116.637 main 0 0 P_____P__PP_P_ SH351966 -20.5849 116.917 -1 -20.9499 116.081 966 -20.5849 116.917 TC -20.5837 116.892 2 -20.6801 116.573 TC 70 967 9 196
1966088S13121 1966 23 SI WA SHIRLEY 1966-04-02 11:00:00 TS -20.9651 116.554 main 0 0 P_____P__PO_P_ SH351966 -20.9280 116.925 -1 -21.1125 115.881 970 -20.9280 116.925 TC -20.9000 116.900 2 -20.9001 116.385 TC 63 969 8 196
1966088S13121 1966 23 SI WA SHIRLEY 1966-04-02 12:00:00 TS -21.0930 116.513 main 0 0 O_____P__OP_O_ jtwc_sh SH351966 -21.1000 116.900 -1 -21.1503 115.867 972 -21.1000 116.900 TC -21.0628 116.873 2 -21.0000 116.300 TC 60 970 8 199
1966088S13121 1966 23 SI WA SHIRLEY 1966-04-02 15:00:00 TS -21.4602 116.372 main 0 0 P_____P__PP_P_ SH351966 -21.6076 116.695 -1 -21.2381 115.972 978 -21.6076 116.695 TC -21.5704 116.710 2 -21.2199 116.142 TC 52 975 8 200
1966088S13121 1966 23 SI WA SHIRLEY 1966-04-02 16:00:00 TS -21.5890 116.312 980 bom main 0 0 P_____O__PP_P_ SH351966 -21.7746 116.600 -1 -21.3000 116.000 980 -21.7746 116.600 TC -21.7428 116.633 2 -21.2967 116.097 TC 50 977 9 206
1966088S13121 1966 23 SI WA SHIRLEY 1966-04-02 18:00:00 TS -21.8815 116.152 main 0 0 O_____P__OP_O_ jtwc_sh SH351966 -22.1000 116.400 -1 -21.5936 115.858 983 -22.1000 116.400 TC -22.0870 116.460 2 -21.5000 116.000 TC 45 981 10 206
1966088S13121 1966 23 SI WA SHIRLEY 1966-04-02 21:00:00 TS -22.3670 115.907 main 0 0 P_____P__PP_P_ SH351966 -22.5650 116.135 -1 -22.1555 115.609 988 -22.5650 116.135 TC -22.5876 116.179 2 -21.9975 115.800 TC 42 986 11 204
1966088S13121 1966 23 SI WA SHIRLEY 1966-04-02 23:00:00 TS -22.7041 115.751 main 0 0 P_____P__PO_P_ SH351966 -22.8583 115.972 -1 -22.5746 115.444 991 -22.8583 115.972 TC -22.9000 116.000 2 -22.3952 115.664 TC 40 989 11 202
1966088S13121 1966 23 SI WA SHIRLEY 1966-04-03 00:00:00 TS -22.8698 115.683 main 0 0 O_____P__OP_O_ jtwc_sh SH351966 -23.0000 115.900 -1 -22.7881 115.368 993 -23.0000 115.900 TC -23.0307 115.930 2 -22.6000 115.600 TC 40 991 11 200
1966088S13121 1966 23 SI WA SHIRLEY 1966-04-03 01:00:00 TS -23.0345 115.622 995 bom main 0 0 P_____O__PP_P_ SH351966 -23.1390 115.838 -1 -23.0000 115.300 995 -23.1390 115.838 TC -23.1549 115.861 2 -22.7969 115.542 TC 39 991 10 198
1966088S13121 1966 23 SI WA SHIRLEY 1966-04-03 03:00:00 TS -23.3570 115.516 main 0 0 P_____P__PP_P_ SH351966 -23.4074 115.735 -1 -23.3882 115.201 995 -23.4074 115.735 TC -23.3906 115.728 2 -23.2000 115.435 TC 37 993 10 195
1966088S13121 1966 23 SI WA SHIRLEY 1966-04-03 06:00:00 TS -23.8404 115.381 main 0 0 O_____P__OP_O_ jtwc_sh SH351966 -23.8000 115.600 -1 -23.9740 115.097 997 -23.8000 115.600 TC -23.7364 115.546 2 -23.8000 115.300 TC 35 996 10 194
1966088S13121 1966 23 SI WA SHIRLEY 1966-04-03 09:00:00 TS -24.3122 115.257 main 0 0 P_____P__PP_P_ SH351966 -24.1625 115.442 -1 -24.5541 115.037 998 -24.1625 115.442 TC -24.1117 115.388 2 -24.3575 115.178 TC 35 997 10 192
1966088S13121 1966 23 SI WA SHIRLEY 1966-04-03 11:00:00 TS -24.6400 115.190 main 0 0 P_____P__PO_P_ SH351966 -24.4381 115.344 -1 -24.9324 115.014 999 -24.4381 115.344 TC -24.4000 115.300 1 -24.7193 115.119 TC 35 998 10 190
1966088S13121 1966 23 SI WA SHIRLEY 1966-04-03 12:00:00 TS -24.8173 115.160 main 0 0 O_____P__OP_O_ jtwc_sh SH351966 -24.6000 115.300 -1 -25.1177 115.006 999 -24.6000 115.300 TC -24.5858 115.256 1 -24.9000 115.100 TC 35 999 11 188
1966088S13121 1966 23 SI WA SHIRLEY 1966-04-03 13:00:00 TS -25.0074 115.134 1000 bom main 0 0 P_____O__PP_P_ SH351966 -24.7960 115.258 -1 -25.3000 115.000 1000 -24.7960 115.258 TC -24.7826 115.214 1 -25.0859 115.088 TC 34 999 12 185
1966088S13121 1966 23 SI WA SHIRLEY 1966-04-03 15:00:00 TS -25.4032 115.093 main 0 0 P_____P__PP_P_ SH351966 -25.2350 115.185 -1 -25.6546 114.992 1000 -25.2350 115.185 TC -25.1994 115.142 1 -25.4575 115.085 TC 32 1000 12 185
1966088S13121 1966 23 SI WA SHIRLEY 1966-04-03 18:00:00 TS -25.9921 115.052 main 0 0 O_____P__OP_O_ jtwc_sh SH351966 -25.9000 115.100 -1 -26.1655 114.988 1001 -25.9000 115.100 TC -25.8439 115.059 1 -26.0000 115.100 TC 30 1001 11 183
1966088S13121 1966 23 SI WA SHIRLEY 1966-04-03 21:00:00 TS -26.5212 115.022 main 0 0 P_____P__PP_P_ SH351966 -26.4525 115.027 -1 -26.6581 114.991 1002 -26.4525 115.027 TC -26.4506 115.011 1 -26.5100 115.105 TC 30 1001 10 183
1966088S13121 1966 23 SI WA SHIRLEY 1966-04-03 23:00:00 TS -26.8323 115.010 main 0 0 P_____P__PO_P_ SH351966 -26.7640 115.003 -1 -26.9802 114.995 1002 -26.7640 115.003 TC -26.8000 115.000 1 -26.8377 115.102 TC 30 1001 9 182
1966088S13121 1966 23 SI WA SHIRLEY 1966-04-04 00:00:00 TS -26.9579 115.005 main 0 0 O_____P__OP_O_ jtwc_sh SH351966 -26.9000 115.000 -1 -27.1402 114.997 1002 -26.9000 115.000 TC -26.9364 114.995 1 -27.0000 115.100 TC 30 1002 7 0
1966088S13121 1966 23 SI WA SHIRLEY 1966-04-04 01:00:00 TS -27.0572 115.001 1003 bom main 0 0 P_____O__PP___ SH351966 -27.0255 115.005 -1 -27.3000 115.000 1003 -27.0255 115.005 TC -27.0601 114.994 1 TC 6 0
1966088S13121 1966 23 SI WA SHIRLEY 1966-04-04 03:00:00 TS -27.2499 115.025 main 0 0 P________PP___ SH351966 -27.2375 115.035 -1 -27.2375 115.035 TC -27.2746 115.005 1 TC 6 171
1966088S13121 1966 23 SI WA SHIRLEY 1966-04-04 06:00:00 TS -27.5118 115.084 main 0 0 O________OP___ jtwc_sh SH351966 -27.5000 115.100 -1 -27.5000 115.100 TC -27.5354 115.052 1 5 170
1966088S13121 1966 23 SI WA SHIRLEY 1966-04-04 09:00:00 TS -27.7571 115.134 main 0 0 P________PP___ SH351966 -27.7575 115.135 -1 -27.7575 115.135 TC -27.7564 115.131 1 5 167
1966088S13121 1966 23 SI WA SHIRLEY 1966-04-04 11:00:00 TS -27.9128 115.181 main 0 0 P________PO___ SH351966 -27.9193 115.172 -1 -27.9193 115.172 TC -27.9000 115.200 1 5 163
1966088S13121 1966 23 SI WA SHIRLEY 1966-04-04 12:00:00 TS -27.9898 115.216 main 0 0 O________OP___ jtwc_sh SH351966 -28.0000 115.200 -1 -28.0000 115.200 TC -27.9746 115.239 1 5 155
1966088S13121 1966 23 SI WA SHIRLEY 1966-04-04 15:00:00 TS -28.2295 115.351 main 0 0 P________PP___ SH351966 -28.2476 115.330 -1 -28.2476 115.330 TC -28.2113 115.372 1 6 152
1966088S13121 1966 23 SI WA SHIRLEY 1966-04-04 18:00:00 TS -28.4778 115.514 main 0 0 O________OP___ jtwc_sh SH351966 -28.5000 115.500 -1 -28.5000 115.500 TC -28.4630 115.524 1 6 149
1966088S13121 1966 23 SI WA SHIRLEY 1966-04-04 21:00:00 NR -28.7238 115.688 main 0 0 __________P___ SH351966 -1 TC -28.7238 115.688 1 6 149
1966088S13121 1966 23 SI WA SHIRLEY 1966-04-04 23:00:00 NR -28.9000 115.800 main 0 __________O___ SH351966 -1 TC -28.9000 115.800 1 6 151

About IBTrACS Database

This database is a web-friendly format of International Best Track Archive for Climate Stewardship (IBTrACS), a global best track data archive curated by NOAA dating back to 1842.

Updated: 2021-11-26